sensor_id;sensor_type;location;lat;lon;timestamp;temperature;humidity
5802;DHT22;2927;49.366;8.530;2023-03-13T00:02:10;10.10;99.90
5802;DHT22;2927;49.366;8.530;2023-03-13T00:04:36;10.10;99.90
5802;DHT22;2927;49.366;8.530;2023-03-13T00:07:01;10.10;99.90
5802;DHT22;2927;49.366;8.530;2023-03-13T00:09:27;10.00;99.90
5802;DHT22;2927;49.366;8.530;2023-03-13T00:11:53;10.00;99.90
5802;DHT22;2927;49.366;8.530;2023-03-13T00:14:18;10.00;1.00
5802;DHT22;2927;49.366;8.530;2023-03-13T00:16:44;10.00;1.00
5802;DHT22;2927;49.366;8.530;2023-03-13T00:19:09;10.00;1.00
5802;DHT22;2927;49.366;8.530;2023-03-13T00:21:35;9.90;1.00
5802;DHT22;2927;49.366;8.530;2023-03-13T00:24:06;9.90;1.00
5802;DHT22;2927;49.366;8.530;2023-03-13T00:26:32;9.80;1.00
5802;DHT22;2927;49.366;8.530;2023-03-13T00:28:57;9.80;1.00
5802;DHT22;2927;49.366;8.530;2023-03-13T00:31:25;9.80;41.70
5802;DHT22;2927;49.366;8.530;2023-03-13T00:33:54;9.80;99.90
5802;DHT22;2927;49.366;8.530;2023-03-13T00:36:23;9.70;99.90
5802;DHT22;2927;49.366;8.530;2023-03-13T00:38:51;9.70;1.00
5802;DHT22;2927;49.366;8.530;2023-03-13T00:41:19;9.80;95.10
5802;DHT22;2927;49.366;8.530;2023-03-13T00:43:45;9.80;99.90
5802;DHT22;2927;49.366;8.530;2023-03-13T00:46:12;9.80;99.90
5802;DHT22;2927;49.366;8.530;2023-03-13T00:48:38;9.80;99.90
5802;DHT22;2927;49.366;8.530;2023-03-13T00:51:05;9.80;99.90
5802;DHT22;2927;49.366;8.530;2023-03-13T00:53:31;9.80;99.90
5802;DHT22;2927;49.366;8.530;2023-03-13T00:58:28;9.90;1.00
5802;DHT22;2927;49.366;8.530;2023-03-13T01:00:55;9.90;19.70
5802;DHT22;2927;49.366;8.530;2023-03-13T01:03:23;9.90;70.40
5802;DHT22;2927;49.366;8.530;2023-03-13T01:05:59;9.90;1.00
5802;DHT22;2927;49.366;8.530;2023-03-13T01:08:25;9.90;1.00
5802;DHT22;2927;49.366;8.530;2023-03-13T01:11:00;9.90;91.50
5802;DHT22;2927;49.366;8.530;2023-03-13T01:13:28;9.90;99.90
5802;DHT22;2927;49.366;8.530;2023-03-13T01:15:54;9.90;1.00
5802;DHT22;2927;49.366;8.530;2023-03-13T01:18:19;9.90;1.00
5802;DHT22;2927;49.366;8.530;2023-03-13T01:20:45;9.90;1.00
5802;DHT22;2927;49.366;8.530;2023-03-13T01:23:11;9.90;1.00
5802;DHT22;2927;49.366;8.530;2023-03-13T01:25:36;9.90;1.00
5802;DHT22;2927;49.366;8.530;2023-03-13T01:28:03;9.90;1.00
5802;DHT22;2927;49.366;8.530;2023-03-13T01:30:28;9.90;51.00
5802;DHT22;2927;49.366;8.530;2023-03-13T01:32:54;9.90;1.00
5802;DHT22;2927;49.366;8.530;2023-03-13T01:35:20;9.90;99.90
5802;DHT22;2927;49.366;8.530;2023-03-13T01:37:45;9.90;1.00
5802;DHT22;2927;49.366;8.530;2023-03-13T01:40:11;9.90;99.90
5802;DHT22;2927;49.366;8.530;2023-03-13T01:42:51;9.90;99.90
5802;DHT22;2927;49.366;8.530;2023-03-13T01:48:37;10.00;99.90
5802;DHT22;2927;49.366;8.530;2023-03-13T01:51:08;10.10;99.90
5802;DHT22;2927;49.366;8.530;2023-03-13T01:53:36;10.10;80.00
5802;DHT22;2927;49.366;8.530;2023-03-13T01:56:04;10.30;1.00
5802;DHT22;2927;49.366;8.530;2023-03-13T01:58:31;10.30;1.00
5802;DHT22;2927;49.366;8.530;2023-03-13T02:00:57;10.40;99.90
5802;DHT22;2927;49.366;8.530;2023-03-13T02:03:23;10.40;99.90
5802;DHT22;2927;49.366;8.530;2023-03-13T02:05:52;10.40;99.90
5802;DHT22;2927;49.366;8.530;2023-03-13T02:08:24;10.50;32.80
5802;DHT22;2927;49.366;8.530;2023-03-13T02:11:12;10.60;1.00
5802;DHT22;2927;49.366;8.530;2023-03-13T02:13:41;10.60;1.00
5802;DHT22;2927;49.366;8.530;2023-03-13T02:16:07;10.60;1.00
5802;DHT22;2927;49.366;8.530;2023-03-13T02:18:35;10.60;1.00
5802;DHT22;2927;49.366;8.530;2023-03-13T02:21:10;10.70;1.00
5802;DHT22;2927;49.366;8.530;2023-03-13T02:23:53;10.70;1.00
5802;DHT22;2927;49.366;8.530;2023-03-13T02:26:20;10.70;1.00
5802;DHT22;2927;49.366;8.530;2023-03-13T02:28:46;10.60;1.00
5802;DHT22;2927;49.366;8.530;2023-03-13T02:31:12;10.60;1.00
5802;DHT22;2927;49.366;8.530;2023-03-13T02:33:39;10.50;1.00
5802;DHT22;2927;49.366;8.530;2023-03-13T02:36:06;10.50;1.00
5802;DHT22;2927;49.366;8.530;2023-03-13T02:38:34;10.60;1.00
5802;DHT22;2927;49.366;8.530;2023-03-13T02:41:01;10.60;1.00
5802;DHT22;2927;49.366;8.530;2023-03-13T02:43:34;10.60;1.00
5802;DHT22;2927;49.366;8.530;2023-03-13T02:46:17;10.60;1.00
5802;DHT22;2927;49.366;8.530;2023-03-13T02:48:44;10.70;1.00
5802;DHT22;2927;49.366;8.530;2023-03-13T02:53:48;10.70;1.00
5802;DHT22;2927;49.366;8.530;2023-03-13T02:56:16;10.70;1.00
5802;DHT22;2927;49.366;8.530;2023-03-13T02:58:44;10.70;99.90
5802;DHT22;2927;49.366;8.530;2023-03-13T03:01:10;10.80;1.00
5802;DHT22;2927;49.366;8.530;2023-03-13T03:03:35;10.80;1.00
5802;DHT22;2927;49.366;8.530;2023-03-13T03:06:05;10.80;99.90
5802;DHT22;2927;49.366;8.530;2023-03-13T03:08:31;10.90;99.90
5802;DHT22;2927;49.366;8.530;2023-03-13T03:10:57;10.90;99.90
5802;DHT22;2927;49.366;8.530;2023-03-13T03:13:22;10.90;99.90
5802;DHT22;2927;49.366;8.530;2023-03-13T03:15:48;11.00;99.90
5802;DHT22;2927;49.366;8.530;2023-03-13T03:18:13;11.00;99.90
5802;DHT22;2927;49.366;8.530;2023-03-13T03:20:39;10.90;1.00
5802;DHT22;2927;49.366;8.530;2023-03-13T03:23:05;10.90;99.90
5802;DHT22;2927;49.366;8.530;2023-03-13T03:25:30;10.90;99.90
5802;DHT22;2927;49.366;8.530;2023-03-13T03:27:56;11.00;1.00
5802;DHT22;2927;49.366;8.530;2023-03-13T03:30:21;11.00;1.00
5802;DHT22;2927;49.366;8.530;2023-03-13T03:32:47;11.00;1.00
5802;DHT22;2927;49.366;8.530;2023-03-13T03:35:12;10.90;1.00
5802;DHT22;2927;49.366;8.530;2023-03-13T03:37:38;10.90;1.00
5802;DHT22;2927;49.366;8.530;2023-03-13T03:40:03;10.90;71.30
5802;DHT22;2927;49.366;8.530;2023-03-13T03:42:32;10.90;1.00
5802;DHT22;2927;49.366;8.530;2023-03-13T03:44:58;10.80;1.00
5802;DHT22;2927;49.366;8.530;2023-03-13T03:47:24;10.90;99.90
5802;DHT22;2927;49.366;8.530;2023-03-13T03:49:49;10.90;99.90
5802;DHT22;2927;49.366;8.530;2023-03-13T03:52:15;10.90;1.00
5802;DHT22;2927;49.366;8.530;2023-03-13T03:54:41;10.90;1.00
5802;DHT22;2927;49.366;8.530;2023-03-13T03:57:07;10.90;1.00
5802;DHT22;2927;49.366;8.530;2023-03-13T03:59:32;10.90;1.00
5802;DHT22;2927;49.366;8.530;2023-03-13T04:01:58;11.00;1.00
5802;DHT22;2927;49.366;8.530;2023-03-13T04:04:23;11.00;1.00
5802;DHT22;2927;49.366;8.530;2023-03-13T04:06:49;11.00;1.00
5802;DHT22;2927;49.366;8.530;2023-03-13T04:09:14;11.00;1.00
5802;DHT22;2927;49.366;8.530;2023-03-13T04:11:40;11.00;1.00
5802;DHT22;2927;49.366;8.530;2023-03-13T04:14:05;11.00;1.00
5802;DHT22;2927;49.366;8.530;2023-03-13T04:16:31;11.00;34.60
5802;DHT22;2927;49.366;8.530;2023-03-13T04:18:56;10.90;91.40
5802;DHT22;2927;49.366;8.530;2023-03-13T04:21:22;10.90;99.90
5802;DHT22;2927;49.366;8.530;2023-03-13T04:23:47;10.90;99.90
5802;DHT22;2927;49.366;8.530;2023-03-13T04:26:13;10.90;99.90
5802;DHT22;2927;49.366;8.530;2023-03-13T04:28:38;10.90;99.90
5802;DHT22;2927;49.366;8.530;2023-03-13T04:31:04;10.90;99.90
5802;DHT22;2927;49.366;8.530;2023-03-13T04:33:29;10.90;99.90
5802;DHT22;2927;49.366;8.530;2023-03-13T04:35:55;10.90;99.90
5802;DHT22;2927;49.366;8.530;2023-03-13T04:38:21;10.90;99.90
5802;DHT22;2927;49.366;8.530;2023-03-13T04:40:46;10.90;99.90
5802;DHT22;2927;49.366;8.530;2023-03-13T04:43:12;10.90;99.90
5802;DHT22;2927;49.366;8.530;2023-03-13T04:45:38;10.90;99.90
5802;DHT22;2927;49.366;8.530;2023-03-13T04:48:04;10.90;99.90
5802;DHT22;2927;49.366;8.530;2023-03-13T04:50:29;10.90;99.90
5802;DHT22;2927;49.366;8.530;2023-03-13T04:52:55;10.90;99.90
5802;DHT22;2927;49.366;8.530;2023-03-13T04:55:20;10.90;99.90
5802;DHT22;2927;49.366;8.530;2023-03-13T04:57:46;10.90;99.90
5802;DHT22;2927;49.366;8.530;2023-03-13T05:00:11;10.90;99.90
5802;DHT22;2927;49.366;8.530;2023-03-13T05:02:37;10.90;99.90
5802;DHT22;2927;49.366;8.530;2023-03-13T05:05:03;10.90;99.90
5802;DHT22;2927;49.366;8.530;2023-03-13T05:07:29;10.90;99.90
5802;DHT22;2927;49.366;8.530;2023-03-13T05:09:54;11.00;99.90
5802;DHT22;2927;49.366;8.530;2023-03-13T05:12:19;11.00;99.90
5802;DHT22;2927;49.366;8.530;2023-03-13T05:14:45;11.00;99.90
5802;DHT22;2927;49.366;8.530;2023-03-13T05:17:11;11.00;99.90
5802;DHT22;2927;49.366;8.530;2023-03-13T05:19:36;11.00;99.90
5802;DHT22;2927;49.366;8.530;2023-03-13T05:22:02;11.00;99.90
5802;DHT22;2927;49.366;8.530;2023-03-13T05:24:28;11.10;99.90
5802;DHT22;2927;49.366;8.530;2023-03-13T05:26:53;11.10;99.40
5802;DHT22;2927;49.366;8.530;2023-03-13T05:29:19;11.10;94.90
5802;DHT22;2927;49.366;8.530;2023-03-13T05:31:44;11.00;96.90
5802;DHT22;2927;49.366;8.530;2023-03-13T05:34:10;11.10;99.90
5802;DHT22;2927;49.366;8.530;2023-03-13T05:36:35;11.00;99.90
5802;DHT22;2927;49.366;8.530;2023-03-13T05:39:01;11.10;95.10
5802;DHT22;2927;49.366;8.530;2023-03-13T05:41:26;11.10;99.90
5802;DHT22;2927;49.366;8.530;2023-03-13T05:43:52;11.10;99.20
5802;DHT22;2927;49.366;8.530;2023-03-13T05:46:17;11.10;99.90
5802;DHT22;2927;49.366;8.530;2023-03-13T05:48:43;11.10;99.90
5802;DHT22;2927;49.366;8.530;2023-03-13T05:51:09;11.10;99.90
5802;DHT22;2927;49.366;8.530;2023-03-13T05:53:35;11.10;99.90
5802;DHT22;2927;49.366;8.530;2023-03-13T05:56:00;11.10;99.90
5802;DHT22;2927;49.366;8.530;2023-03-13T05:58:26;11.20;99.90
5802;DHT22;2927;49.366;8.530;2023-03-13T06:00:51;11.20;99.90
5802;DHT22;2927;49.366;8.530;2023-03-13T06:03:17;11.30;98.50
5802;DHT22;2927;49.366;8.530;2023-03-13T06:05:42;11.30;91.70
5802;DHT22;2927;49.366;8.530;2023-03-13T06:08:08;11.30;85.80
5802;DHT22;2927;49.366;8.530;2023-03-13T06:10:33;11.30;88.10
5802;DHT22;2927;49.366;8.530;2023-03-13T06:12:59;11.40;82.80
5802;DHT22;2927;49.366;8.530;2023-03-13T06:15:25;11.40;78.00
5802;DHT22;2927;49.366;8.530;2023-03-13T06:17:50;11.50;76.10
5802;DHT22;2927;49.366;8.530;2023-03-13T06:20:16;11.50;99.90
5802;DHT22;2927;49.366;8.530;2023-03-13T06:22:41;11.50;99.90
5802;DHT22;2927;49.366;8.530;2023-03-13T06:25:07;11.50;99.90
5802;DHT22;2927;49.366;8.530;2023-03-13T06:27:33;11.50;99.90
5802;DHT22;2927;49.366;8.530;2023-03-13T06:29:59;11.50;99.90
5802;DHT22;2927;49.366;8.530;2023-03-13T06:32:26;11.50;99.90
5802;DHT22;2927;49.366;8.530;2023-03-13T06:34:51;11.50;99.90
5802;DHT22;2927;49.366;8.530;2023-03-13T06:37:17;11.50;99.90
5802;DHT22;2927;49.366;8.530;2023-03-13T06:39:42;11.50;99.90
5802;DHT22;2927;49.366;8.530;2023-03-13T06:42:08;11.60;99.90
5802;DHT22;2927;49.366;8.530;2023-03-13T06:44:33;11.50;99.90
5802;DHT22;2927;49.366;8.530;2023-03-13T06:46:59;11.60;99.90
5802;DHT22;2927;49.366;8.530;2023-03-13T06:49:24;11.60;99.90
5802;DHT22;2927;49.366;8.530;2023-03-13T06:51:50;11.60;99.90
5802;DHT22;2927;49.366;8.530;2023-03-13T06:54:15;11.60;99.90
5802;DHT22;2927;49.366;8.530;2023-03-13T06:56:41;11.60;99.90
5802;DHT22;2927;49.366;8.530;2023-03-13T06:59:06;11.70;99.90
5802;DHT22;2927;49.366;8.530;2023-03-13T07:01:32;11.70;99.90
5802;DHT22;2927;49.366;8.530;2023-03-13T07:03:57;11.70;99.90
5802;DHT22;2927;49.366;8.530;2023-03-13T07:06:23;11.70;99.90
5802;DHT22;2927;49.366;8.530;2023-03-13T07:08:48;11.70;99.90
5802;DHT22;2927;49.366;8.530;2023-03-13T07:11:14;11.80;99.90
5802;DHT22;2927;49.366;8.530;2023-03-13T07:13:40;11.80;99.90
5802;DHT22;2927;49.366;8.530;2023-03-13T07:16:11;11.90;99.90
5802;DHT22;2927;49.366;8.530;2023-03-13T07:18:37;11.90;99.90
5802;DHT22;2927;49.366;8.530;2023-03-13T07:21:04;12.00;99.90
5802;DHT22;2927;49.366;8.530;2023-03-13T07:23:30;12.10;99.90
5802;DHT22;2927;49.366;8.530;2023-03-13T07:25:59;12.10;99.90
5802;DHT22;2927;49.366;8.530;2023-03-13T07:28:25;12.20;99.90
5802;DHT22;2927;49.366;8.530;2023-03-13T07:30:51;12.30;99.90
5802;DHT22;2927;49.366;8.530;2023-03-13T07:33:17;12.40;99.90
5802;DHT22;2927;49.366;8.530;2023-03-13T07:35:50;12.50;99.90
5802;DHT22;2927;49.366;8.530;2023-03-13T07:38:16;12.70;99.90
5802;DHT22;2927;49.366;8.530;2023-03-13T07:40:53;12.80;99.90
5802;DHT22;2927;49.366;8.530;2023-03-13T07:43:19;12.90;61.20
5802;DHT22;2927;49.366;8.530;2023-03-13T07:45:56;12.90;72.90
5802;DHT22;2927;49.366;8.530;2023-03-13T07:48:32;13.00;45.20
5802;DHT22;2927;49.366;8.530;2023-03-13T07:50:58;13.00;19.10
5802;DHT22;2927;49.366;8.530;2023-03-13T07:53:25;13.00;20.50
5802;DHT22;2927;49.366;8.530;2023-03-13T07:55:55;13.10;13.10
5802;DHT22;2927;49.366;8.530;2023-03-13T07:58:22;13.10;1.00
5802;DHT22;2927;49.366;8.530;2023-03-13T08:00:48;13.20;1.00
5802;DHT22;2927;49.366;8.530;2023-03-13T08:03:13;13.20;1.00
5802;DHT22;2927;49.366;8.530;2023-03-13T08:05:39;13.30;1.00
5802;DHT22;2927;49.366;8.530;2023-03-13T08:08:05;13.30;1.00
5802;DHT22;2927;49.366;8.530;2023-03-13T08:10:31;13.30;1.00
5802;DHT22;2927;49.366;8.530;2023-03-13T08:12:56;13.30;1.00
5802;DHT22;2927;49.366;8.530;2023-03-13T08:15:22;13.30;1.00
5802;DHT22;2927;49.366;8.530;2023-03-13T08:17:51;13.30;1.00
5802;DHT22;2927;49.366;8.530;2023-03-13T08:20:17;13.30;1.00
5802;DHT22;2927;49.366;8.530;2023-03-13T08:22:44;13.40;1.00
5802;DHT22;2927;49.366;8.530;2023-03-13T08:25:13;13.40;1.00
5802;DHT22;2927;49.366;8.530;2023-03-13T08:27:39;13.40;1.00
5802;DHT22;2927;49.366;8.530;2023-03-13T08:30:05;13.40;1.00
5802;DHT22;2927;49.366;8.530;2023-03-13T08:32:35;13.30;1.00
5802;DHT22;2927;49.366;8.530;2023-03-13T08:35:01;13.40;1.00
5802;DHT22;2927;49.366;8.530;2023-03-13T08:37:27;13.40;1.00
5802;DHT22;2927;49.366;8.530;2023-03-13T08:39:52;13.40;1.00
5802;DHT22;2927;49.366;8.530;2023-03-13T08:42:20;13.40;1.00
5802;DHT22;2927;49.366;8.530;2023-03-13T08:44:46;13.50;1.00
5802;DHT22;2927;49.366;8.530;2023-03-13T08:47:12;13.50;1.00
5802;DHT22;2927;49.366;8.530;2023-03-13T08:49:37;13.50;1.00
5802;DHT22;2927;49.366;8.530;2023-03-13T08:52:04;13.50;1.00
5802;DHT22;2927;49.366;8.530;2023-03-13T08:54:30;13.60;1.00
5802;DHT22;2927;49.366;8.530;2023-03-13T08:56:55;13.60;1.00
5802;DHT22;2927;49.366;8.530;2023-03-13T08:59:21;13.60;1.00
5802;DHT22;2927;49.366;8.530;2023-03-13T09:01:47;13.60;1.00
5802;DHT22;2927;49.366;8.530;2023-03-13T09:04:13;13.70;1.00
5802;DHT22;2927;49.366;8.530;2023-03-13T09:06:38;13.60;1.00
5802;DHT22;2927;49.366;8.530;2023-03-13T09:09:05;13.60;1.00
5802;DHT22;2927;49.366;8.530;2023-03-13T09:11:32;13.60;1.00
5802;DHT22;2927;49.366;8.530;2023-03-13T09:13:58;13.70;1.00
5802;DHT22;2927;49.366;8.530;2023-03-13T09:16:26;13.90;99.90
5802;DHT22;2927;49.366;8.530;2023-03-13T09:18:52;14.40;1.00
5802;DHT22;2927;49.366;8.530;2023-03-13T09:21:23;14.80;99.90
5802;DHT22;2927;49.366;8.530;2023-03-13T09:23:49;15.10;1.00
5802;DHT22;2927;49.366;8.530;2023-03-13T09:26:16;15.40;41.90
5802;DHT22;2927;49.366;8.530;2023-03-13T09:28:42;15.30;99.90
5802;DHT22;2927;49.366;8.530;2023-03-13T09:31:13;15.10;1.00
5802;DHT22;2927;49.366;8.530;2023-03-13T09:33:39;15.00;8.30
5802;DHT22;2927;49.366;8.530;2023-03-13T09:36:06;14.80;1.00
5802;DHT22;2927;49.366;8.530;2023-03-13T09:38:31;14.60;1.00
5802;DHT22;2927;49.366;8.530;2023-03-13T09:41:19;14.50;1.00
5802;DHT22;2927;49.366;8.530;2023-03-13T09:46:42;14.40;1.00
5802;DHT22;2927;49.366;8.530;2023-03-13T09:49:28;14.30;1.00
5802;DHT22;2927;49.366;8.530;2023-03-13T09:57:49;14.40;1.00
5802;DHT22;2927;49.366;8.530;2023-03-13T10:00:35;14.50;99.90
5802;DHT22;2927;49.366;8.530;2023-03-13T10:05:37;14.60;99.90
5802;DHT22;2927;49.366;8.530;2023-03-13T10:08:22;14.70;99.90
5802;DHT22;2927;49.366;8.530;2023-03-13T10:11:02;14.70;99.90
5802;DHT22;2927;49.366;8.530;2023-03-13T10:16:10;14.90;99.90
5802;DHT22;2927;49.366;8.530;2023-03-13T10:18:39;15.00;1.00
5802;DHT22;2927;49.366;8.530;2023-03-13T10:21:19;15.30;99.90
5802;DHT22;2927;49.366;8.530;2023-03-13T10:23:56;15.80;1.00
5802;DHT22;2927;49.366;8.530;2023-03-13T10:26:26;16.10;1.00
5802;DHT22;2927;49.366;8.530;2023-03-13T10:28:53;16.10;1.00
5802;DHT22;2927;49.366;8.530;2023-03-13T10:31:29;16.20;1.00
5802;DHT22;2927;49.366;8.530;2023-03-13T10:34:10;16.30;1.00
5802;DHT22;2927;49.366;8.530;2023-03-13T10:36:42;16.40;1.00
5802;DHT22;2927;49.366;8.530;2023-03-13T10:39:22;16.50;1.00
5802;DHT22;2927;49.366;8.530;2023-03-13T10:41:49;16.60;1.00
5802;DHT22;2927;49.366;8.530;2023-03-13T10:44:16;16.60;99.90
5802;DHT22;2927;49.366;8.530;2023-03-13T10:46:44;16.60;99.90
5802;DHT22;2927;49.366;8.530;2023-03-13T10:49:18;16.60;99.90
5802;DHT22;2927;49.366;8.530;2023-03-13T10:51:49;16.70;99.90
5802;DHT22;2927;49.366;8.530;2023-03-13T10:56:44;17.00;1.00
5802;DHT22;2927;49.366;8.530;2023-03-13T10:59:24;17.10;1.00
5802;DHT22;2927;49.366;8.530;2023-03-13T11:01:51;17.30;1.00
5802;DHT22;2927;49.366;8.530;2023-03-13T11:04:27;17.70;99.90
5802;DHT22;2927;49.366;8.530;2023-03-13T11:07:04;17.90;1.00
5802;DHT22;2927;49.366;8.530;2023-03-13T11:09:30;18.10;1.00
5802;DHT22;2927;49.366;8.530;2023-03-13T11:12:08;18.20;1.00
5802;DHT22;2927;49.366;8.530;2023-03-13T11:14:36;18.10;1.00
5802;DHT22;2927;49.366;8.530;2023-03-13T11:17:23;18.10;1.00
5802;DHT22;2927;49.366;8.530;2023-03-13T11:19:59;18.00;1.00
5802;DHT22;2927;49.366;8.530;2023-03-13T11:33:17;17.40;99.90
5802;DHT22;2927;49.366;8.530;2023-03-13T11:38:36;17.30;99.90
5802;DHT22;2927;49.366;8.530;2023-03-13T11:52:37;17.90;1.00
5802;DHT22;2927;49.366;8.530;2023-03-13T11:58:25;18.40;1.00
5802;DHT22;2927;49.366;8.530;2023-03-13T12:01:02;18.50;1.00
5802;DHT22;2927;49.366;8.530;2023-03-13T12:03:53;18.70;1.00
5802;DHT22;2927;49.366;8.530;2023-03-13T12:06:30;18.70;99.90
5802;DHT22;2927;49.366;8.530;2023-03-13T12:09:23;18.80;99.90
5802;DHT22;2927;49.366;8.530;2023-03-13T12:14:23;18.70;99.90
5802;DHT22;2927;49.366;8.530;2023-03-13T12:16:55;18.70;99.90
5802;DHT22;2927;49.366;8.530;2023-03-13T12:20:04;18.90;99.90
5802;DHT22;2927;49.366;8.530;2023-03-13T12:25:27;19.00;99.90
5802;DHT22;2927;49.366;8.530;2023-03-13T12:31:24;19.30;99.90
5802;DHT22;2927;49.366;8.530;2023-03-13T12:34:06;19.50;99.90
5802;DHT22;2927;49.366;8.530;2023-03-13T12:36:55;19.60;96.20
5802;DHT22;2927;49.366;8.530;2023-03-13T12:39:36;19.40;35.80
5802;DHT22;2927;49.366;8.530;2023-03-13T12:45:15;19.40;74.60
5802;DHT22;2927;49.366;8.530;2023-03-13T12:48:16;19.30;93.50
5802;DHT22;2927;49.366;8.530;2023-03-13T12:54:00;19.60;99.20
5802;DHT22;2927;49.366;8.530;2023-03-13T12:59:07;19.60;1.00
5802;DHT22;2927;49.366;8.530;2023-03-13T13:01:39;19.50;1.00
5802;DHT22;2927;49.366;8.530;2023-03-13T13:04:10;19.40;2.40
5802;DHT22;2927;49.366;8.530;2023-03-13T13:06:56;19.50;1.00
5802;DHT22;2927;49.366;8.530;2023-03-13T13:09:34;19.50;1.00
5802;DHT22;2927;49.366;8.530;2023-03-13T13:17:02;19.80;1.00
5802;DHT22;2927;49.366;8.530;2023-03-13T13:32:36;20.80;1.00
5802;DHT22;2927;49.366;8.530;2023-03-13T13:37:33;20.70;1.00
5802;DHT22;2927;49.366;8.530;2023-03-13T13:40:28;20.80;1.00
5802;DHT22;2927;49.366;8.530;2023-03-13T13:42:59;20.80;1.00
5802;DHT22;2927;49.366;8.530;2023-03-13T13:45:31;20.80;1.00
5802;DHT22;2927;49.366;8.530;2023-03-13T13:48:29;20.80;1.00
5802;DHT22;2927;49.366;8.530;2023-03-13T13:53:46;20.90;1.00
5802;DHT22;2927;49.366;8.530;2023-03-13T13:56:45;21.00;1.00
5802;DHT22;2927;49.366;8.530;2023-03-13T14:01:47;20.90;1.00
5802;DHT22;2927;49.366;8.530;2023-03-13T14:04:36;21.00;1.00
5802;DHT22;2927;49.366;8.530;2023-03-13T14:07:04;21.20;99.90
5802;DHT22;2927;49.366;8.530;2023-03-13T14:12:28;21.40;99.90
5802;DHT22;2927;49.366;8.530;2023-03-13T14:15:15;21.40;99.90
5802;DHT22;2927;49.366;8.530;2023-03-13T14:17:48;21.30;99.90
5802;DHT22;2927;49.366;8.530;2023-03-13T14:20:32;21.20;99.90
5802;DHT22;2927;49.366;8.530;2023-03-13T14:23:04;21.20;99.90
5802;DHT22;2927;49.366;8.530;2023-03-13T14:25:48;21.20;99.90
5802;DHT22;2927;49.366;8.530;2023-03-13T14:28:27;21.10;99.90
5802;DHT22;2927;49.366;8.530;2023-03-13T14:30:56;21.10;99.90
5802;DHT22;2927;49.366;8.530;2023-03-13T14:33:22;21.10;99.90
5802;DHT22;2927;49.366;8.530;2023-03-13T14:35:48;21.10;99.90
5802;DHT22;2927;49.366;8.530;2023-03-13T14:38:19;21.10;99.90
5802;DHT22;2927;49.366;8.530;2023-03-13T14:40:46;20.90;99.90
5802;DHT22;2927;49.366;8.530;2023-03-13T14:43:19;20.70;99.90
5802;DHT22;2927;49.366;8.530;2023-03-13T14:45:46;20.60;99.90
5802;DHT22;2927;49.366;8.530;2023-03-13T14:48:22;20.60;99.90
5802;DHT22;2927;49.366;8.530;2023-03-13T14:50:51;20.70;99.90
5802;DHT22;2927;49.366;8.530;2023-03-13T14:53:19;20.80;99.90
5802;DHT22;2927;49.366;8.530;2023-03-13T14:55:46;20.80;99.90
5802;DHT22;2927;49.366;8.530;2023-03-13T14:58:28;20.80;99.90
5802;DHT22;2927;49.366;8.530;2023-03-13T15:00:55;20.90;99.90
5802;DHT22;2927;49.366;8.530;2023-03-13T15:03:28;20.80;99.90
5802;DHT22;2927;49.366;8.530;2023-03-13T15:08:33;20.90;99.90
5802;DHT22;2927;49.366;8.530;2023-03-13T15:10:59;21.10;99.90
5802;DHT22;2927;49.366;8.530;2023-03-13T15:15:58;21.10;99.90
5802;DHT22;2927;49.366;8.530;2023-03-13T15:18:27;21.10;99.90
5802;DHT22;2927;49.366;8.530;2023-03-13T15:23:37;21.00;99.90
5802;DHT22;2927;49.366;8.530;2023-03-13T15:26:03;20.90;99.90
5802;DHT22;2927;49.366;8.530;2023-03-13T15:28:30;20.80;99.90
5802;DHT22;2927;49.366;8.530;2023-03-13T15:30:56;20.70;99.90
5802;DHT22;2927;49.366;8.530;2023-03-13T15:33:23;20.80;99.90
5802;DHT22;2927;49.366;8.530;2023-03-13T15:35:50;20.90;99.90
5802;DHT22;2927;49.366;8.530;2023-03-13T15:38:19;21.10;99.90
5802;DHT22;2927;49.366;8.530;2023-03-13T15:40:45;21.20;99.90
5802;DHT22;2927;49.366;8.530;2023-03-13T15:43:11;21.20;99.90
5802;DHT22;2927;49.366;8.530;2023-03-13T15:45:38;21.30;99.90
5802;DHT22;2927;49.366;8.530;2023-03-13T15:50:41;21.40;99.90
5802;DHT22;2927;49.366;8.530;2023-03-13T15:53:19;21.30;99.90
5802;DHT22;2927;49.366;8.530;2023-03-13T15:55:46;21.20;99.90
5802;DHT22;2927;49.366;8.530;2023-03-13T15:58:13;20.90;99.90
5802;DHT22;2927;49.366;8.530;2023-03-13T16:00:39;20.80;99.90
5802;DHT22;2927;49.366;8.530;2023-03-13T16:03:05;20.70;99.90
5802;DHT22;2927;49.366;8.530;2023-03-13T16:05:30;20.60;99.90
5802;DHT22;2927;49.366;8.530;2023-03-13T16:07:56;20.50;99.90
5802;DHT22;2927;49.366;8.530;2023-03-13T16:10:25;20.50;99.90
5802;DHT22;2927;49.366;8.530;2023-03-13T16:12:52;20.40;99.90
5802;DHT22;2927;49.366;8.530;2023-03-13T16:15:18;20.20;99.90
5802;DHT22;2927;49.366;8.530;2023-03-13T16:17:43;20.10;99.90
5802;DHT22;2927;49.366;8.530;2023-03-13T16:20:21;19.80;99.90
5802;DHT22;2927;49.366;8.530;2023-03-13T16:22:47;19.10;99.90
5802;DHT22;2927;49.366;8.530;2023-03-13T16:25:13;18.60;99.90
5802;DHT22;2927;49.366;8.530;2023-03-13T16:27:39;18.10;99.90
5802;DHT22;2927;49.366;8.530;2023-03-13T16:30:30;17.80;99.90
5802;DHT22;2927;49.366;8.530;2023-03-13T16:32:56;17.60;99.90
5802;DHT22;2927;49.366;8.530;2023-03-13T16:35:24;17.30;1.00
5802;DHT22;2927;49.366;8.530;2023-03-13T16:37:51;17.20;1.00
5802;DHT22;2927;49.366;8.530;2023-03-13T16:40:20;17.10;1.00
5802;DHT22;2927;49.366;8.530;2023-03-13T16:42:47;17.00;1.00
5802;DHT22;2927;49.366;8.530;2023-03-13T16:45:13;16.90;1.00
5802;DHT22;2927;49.366;8.530;2023-03-13T16:47:39;16.80;1.00
5802;DHT22;2927;49.366;8.530;2023-03-13T16:50:34;16.70;1.00
5802;DHT22;2927;49.366;8.530;2023-03-13T16:53:00;16.60;1.00
5802;DHT22;2927;49.366;8.530;2023-03-13T16:55:26;16.50;1.00
5802;DHT22;2927;49.366;8.530;2023-03-13T16:58:00;16.40;73.70
5802;DHT22;2927;49.366;8.530;2023-03-13T17:00:28;16.30;99.90
5802;DHT22;2927;49.366;8.530;2023-03-13T17:02:54;16.20;99.90
5802;DHT22;2927;49.366;8.530;2023-03-13T17:05:21;16.10;1.00
5802;DHT22;2927;49.366;8.530;2023-03-13T17:07:49;16.00;1.00
5802;DHT22;2927;49.366;8.530;2023-03-13T17:12:41;15.80;1.00
5802;DHT22;2927;49.366;8.530;2023-03-13T17:15:07;15.70;99.90
5802;DHT22;2927;49.366;8.530;2023-03-13T17:17:33;15.60;1.00
5802;DHT22;2927;49.366;8.530;2023-03-13T17:19:59;15.50;1.00
5802;DHT22;2927;49.366;8.530;2023-03-13T17:22:25;15.30;99.90
5802;DHT22;2927;49.366;8.530;2023-03-13T17:24:50;15.10;1.00
5802;DHT22;2927;49.366;8.530;2023-03-13T17:27:16;15.00;1.00
5802;DHT22;2927;49.366;8.530;2023-03-13T17:29:43;14.90;99.90
5802;DHT22;2927;49.366;8.530;2023-03-13T17:32:13;14.70;1.00
5802;DHT22;2927;49.366;8.530;2023-03-13T17:34:39;14.50;1.00
5802;DHT22;2927;49.366;8.530;2023-03-13T17:37:14;14.30;1.00
5802;DHT22;2927;49.366;8.530;2023-03-13T17:39:40;14.30;14.50
5802;DHT22;2927;49.366;8.530;2023-03-13T17:42:07;14.20;60.70
5802;DHT22;2927;49.366;8.530;2023-03-13T17:44:33;14.10;87.60
5802;DHT22;2927;49.366;8.530;2023-03-13T17:46:58;14.00;99.90
5802;DHT22;2927;49.366;8.530;2023-03-13T17:49:24;14.00;99.90
5802;DHT22;2927;49.366;8.530;2023-03-13T17:51:49;13.90;99.90
5802;DHT22;2927;49.366;8.530;2023-03-13T17:54:16;13.90;99.90
5802;DHT22;2927;49.366;8.530;2023-03-13T17:56:43;13.80;99.90
5802;DHT22;2927;49.366;8.530;2023-03-13T17:59:11;13.80;99.90
5802;DHT22;2927;49.366;8.530;2023-03-13T18:01:37;13.70;99.90
5802;DHT22;2927;49.366;8.530;2023-03-13T18:04:03;13.60;99.90
5802;DHT22;2927;49.366;8.530;2023-03-13T18:06:30;13.50;99.90
5802;DHT22;2927;49.366;8.530;2023-03-13T18:08:58;13.40;99.90
5802;DHT22;2927;49.366;8.530;2023-03-13T18:11:26;13.40;99.90
5802;DHT22;2927;49.366;8.530;2023-03-13T18:13:52;13.30;99.90